Congonhas Airport
SBSP : now visible

Airfield :











YOU CAN JOIN US ON...

 
LOGIN :

Register | Disclaimer

   EN    FR    IT 

 









Legend :    VFR   Marginal VFR   IFR   Intensive IFR   Very Intensive IFR
Visi :
Ceiling :
>= 8 km
>= 3000ft
5 to 8 km
1000 to 3000 ft
1500m to 5 km
500 to 1000 ft
800 to 1500m
200 to 500 ft
< 800m
< 200 ft
Symbols :   Thunderstorms  Fog  Heavy snow  Heavy precipitations  Wind > 20 kt







- Airport Elevation : 2631 ft
- IATA code : CGH


SBSP - Congonhas

CURRENT METAR :
  • 210522Z AUTO 28005KT 9999 -RA SCT002 20/19 Q1016 RERA

EXPIRED METARs :
  • 210511Z AUTO 28004KT 7000 +RA SCT002 BKN004 20/19 Q1016
  • 210500Z AUTO 31006KT 8000 RA SCT004 BKN007 20/19 Q1017
  • 210450Z AUTO 31005KT 9000 RA FEW005 BKN007 OVC047 20/19 Q1017
  • 210439Z AUTO 32004KT 9999 -RA SCT007 21/19 Q1017 RERA
  • 210414Z AUTO 02005KT 9000 RA NCD 21/19 Q1017
  • 210400Z AUTO 03005KT 9999 -RA NCD 21/19 Q1017
  • 210300Z AUTO 02005KT CAVOK 21/18 Q1017

TAF TAF SBSP
Valid from the 21 at 06:00 until the 22 at 06:00 UTC


210130Z 2106/2206 09005KT 8000 NSC TN20/2109Z TX28/2117Z
PROB30 2108/2111 6000 BKN008
BECMG 2112/2114 06005KT BKN020
PROB40 2117/2121 04005KT 8000 TSRA BKN015 FEW040CB
BECMG 2200/2202 NSC RMK PHG
SBCW FIR / South America



MET'MAP, your aeronautical weather chart ! - Copyright ORBIFLY December 2007 - Disclaimer

ORBIFLY MET'MAP TEAM :

Programming & Development : Alexandra Zaïnal
Concept & Development : Baudouin d'Aumeries
Co-Development & Prog : Marc-Olivier Méhu
Technical & hardware support : Manuel Goepfert

Contact : metmap@orbifly.com




SOURCES & CREDITS :

   NOAA       Earth
Advisory